Time;durP1;ratioP1;P1;durP2;ratioP2;P2;SDS_P1;SDS_P2;PMS_P1;PMS_P2;Temp;Humidity;BMP_temperature;BMP_pressure;BME280_temperature;BME280_humidity;BME280_pressure;Samples;Min_cycle;Max_cycle;Signal;HPM_P1;HPM_P2
2023/10/07 00:02:13;;;;;;;7.63;3.57;;;;;;;13.97;78.12;95547.59;5109626;28;20196;-45
2023/10/07 00:04:40;;;;;;;6.30;3.97;;;;;;;13.99;77.83;95553.41;5110041;28;20220;-45
2023/10/07 00:07:10;;;;;;;7.57;3.93;;;;;;;13.96;78.40;95554.50;5109396;28;20665;-45
2023/10/07 00:09:43;;;;;;;4.23;3.30;;;;;;;13.94;78.23;95547.84;5109834;28;20216;-44
2023/10/07 00:12:13;;;;;;;4.53;3.70;;;;;;;13.73;78.24;95520.56;5109440;28;20569;-45
2023/10/07 00:14:41;;;;;;;7.13;3.93;;;;;;;13.87;78.26;95542.47;5109678;28;20199;-45
2023/10/07 00:17:16;;;;;;;4.90;3.60;;;;;;;13.87;78.59;95546.78;5109392;28;20193;-45
2023/10/07 00:19:43;;;;;;;5.27;4.10;;;;;;;13.85;78.61;95546.09;5109598;28;20188;-45
2023/10/07 00:22:13;;;;;;;5.00;4.13;;;;;;;13.81;78.65;95533.50;5109357;28;20189;-44
2023/10/07 00:24:43;;;;;;;6.87;3.70;;;;;;;13.84;78.52;95536.78;5109913;28;20185;-44
2023/10/07 00:27:22;;;;;;;4.10;3.63;;;;;;;13.81;78.48;95530.94;5108856;28;20220;-42
2023/10/07 00:29:54;;;;;;;7.07;4.20;;;;;;;13.81;78.77;95525.00;5109850;28;20253;-45
2023/10/07 00:32:26;;;;;;;8.90;5.00;;;;;;;13.75;78.83;95517.84;5109013;28;20193;-44
2023/10/07 00:34:53;;;;;;;4.60;3.50;;;;;;;13.75;79.07;95516.06;5109679;28;20268;-44
2023/10/07 00:37:20;;;;;;;7.07;4.07;;;;;;;13.73;79.22;95520.56;5109066;28;20668;-44
2023/10/07 00:39:49;;;;;;;8.00;4.23;;;;;;;13.72;79.40;95515.53;5109643;28;20189;-45
2023/10/07 00:42:15;;;;;;;8.73;3.80;;;;;;;13.67;79.54;95505.66;5109397;28;20193;-44
2023/10/07 00:44:44;;;;;;;6.20;4.40;;;;;;;13.68;79.37;95509.84;5113515;28;20189;-44
2023/10/07 00:47:14;;;;;;;4.43;3.30;;;;;;;13.67;79.37;95515.94;5113014;28;20224;-44
2023/10/07 00:49:50;;;;;;;6.00;3.30;;;;;;;13.65;79.69;95504.19;5113154;28;20279;-45
2023/10/07 00:52:24;;;;;;;4.20;3.40;;;;;;;13.64;79.77;95499.97;5112897;28;20676;-45
2023/10/07 00:54:59;;;;;;;4.63;3.60;;;;;;;13.62;79.83;95501.88;5113008;28;20198;-45
2023/10/07 00:57:34;;;;;;;7.40;3.63;;;;;;;13.40;80.30;95474.72;5112700;28;20684;-43
2023/10/07 01:00:12;;;;;;;5.67;4.00;;;;;;;13.55;80.23;95502.41;5113033;28;20379;-45
2023/10/07 01:02:39;;;;;;;6.47;4.07;;;;;;;13.54;80.40;95500.78;5112889;28;20189;-43
2023/10/07 01:05:12;;;;;;;4.13;3.40;;;;;;;13.53;80.61;95500.94;5112838;28;20610;-45
2023/10/07 01:07:40;;;;;;;5.63;3.57;;;;;;;13.48;80.72;95498.78;5112888;28;20220;-45
2023/10/07 01:10:13;;;;;;;7.27;3.60;;;;;;;13.50;80.75;95501.19;5113095;28;20646;-44
2023/10/07 01:12:42;;;;;;;4.90;3.77;;;;;;;13.45;80.88;95495.66;5113140;28;20231;-45
2023/10/07 01:15:18;;;;;;;6.87;3.83;;;;;;;13.43;80.92;95500.94;5113315;28;20244;-45
2023/10/07 01:17:45;;;;;;;6.83;4.37;;;;;;;13.24;81.13;95470.09;5114016;28;20188;-44
2023/10/07 01:20:14;;;;;;;7.87;4.10;;;;;;;13.17;81.24;95471.53;5112889;28;20253;-43
2023/10/07 01:23:02;;;;;;;5.20;3.63;;;;;;;13.32;81.39;95501.06;5112602;28;20204;-44
2023/10/07 01:25:31;;;;;;;4.73;3.70;;;;;;;13.30;81.56;95497.84;5112067;28;20185;-44
2023/10/07 01:28:01;;;;;;;6.23;3.90;;;;;;;13.30;81.60;95498.66;5111839;28;20235;-44
2023/10/07 01:30:34;;;;;;;6.60;3.93;;;;;;;13.28;81.66;95500.53;5112210;28;20661;-44
2023/10/07 01:33:09;;;;;;;4.73;3.80;;;;;;;13.27;81.32;95504.03;5112200;28;20216;-43
2023/10/07 01:35:39;;;;;;;4.27;3.60;;;;;;;13.24;81.71;95500.94;5112043;28;20712;-45
2023/10/07 01:38:08;;;;;;;10.50;3.97;;;;;;;13.22;81.46;95498.50;5111988;28;20197;-45
2023/10/07 01:40:55;;;;;;;4.30;3.73;;;;;;;12.48;81.44;95383.41;5111489;28;20181;-44
2023/10/07 01:43:23;;;;;;;4.93;3.57;;;;;;;13.22;81.71;95502.81;5111769;28;20601;-44
2023/10/07 01:45:52;;;;;;;6.03;4.10;;;;;;;13.26;81.98;95502.44;5111713;28;20657;-43
2023/10/07 01:48:20;;;;;;;6.50;3.40;;;;;;;13.27;81.97;95501.47;5111593;28;20248;-45
2023/10/07 01:50:47;;;;;;;10.53;4.10;;;;;;;13.20;82.16;95500.34;5111585;28;20275;-45
2023/10/07 01:53:15;;;;;;;6.63;4.33;;;;;;;13.11;82.41;95495.19;5112324;28;20219;-45
2023/10/07 01:55:43;;;;;;;8.13;4.27;;;;;;;12.88;82.16;95466.41;5115738;28;20192;-46
2023/10/07 01:58:13;;;;;;;5.00;3.80;;;;;;;13.05;82.48;95494.00;5112486;28;20253;-46
2023/10/07 02:00:44;;;;;;;6.27;4.00;;;;;;;12.98;82.74;95492.88;5111555;28;20204;-44
2023/10/07 02:03:16;;;;;;;4.23;3.43;;;;;;;12.95;82.63;95498.28;5111712;28;20711;-44
2023/10/07 02:05:47;;;;;;;4.70;3.73;;;;;;;12.93;82.97;95489.91;5111338;28;20189;-46
2023/10/07 02:08:18;;;;;;;11.17;3.87;;;;;;;12.95;83.12;95481.13;5111976;28;20213;-46
2023/10/07 02:10:47;;;;;;;7.93;3.60;;;;;;;12.86;83.07;95474.22;5114632;28;20193;-44
2023/10/07 02:13:18;;;;;;;5.10;4.40;;;;;;;12.76;83.52;95461.38;5113882;28;20227;-45
2023/10/07 02:15:46;;;;;;;5.93;3.83;;;;;;;12.88;83.35;95467.19;5121300;28;20200;-49
2023/10/07 02:18:15;;;;;;;5.93;4.27;;;;;;;12.88;83.60;95480.03;5118012;28;20305;-46
2023/10/07 02:20:49;;;;;;;6.80;4.00;;;;;;;12.86;83.91;95476.78;5110829;28;20677;-44
2023/10/07 02:23:22;;;;;;;6.07;4.37;;;;;;;12.83;83.97;95484.75;5111581;28;20185;-44
2023/10/07 02:25:50;;;;;;;7.70;4.80;;;;;;;12.82;83.76;95475.41;5111088;28;20224;-44
2023/10/07 02:28:21;;;;;;;7.37;4.30;;;;;;;12.78;84.35;95476.66;5111052;28;20217;-45
2023/10/07 02:30:51;;;;;;;6.00;4.20;;;;;;;12.54;84.31;95439.28;5110928;28;20555;-44
2023/10/07 02:33:21;;;;;;;9.60;4.43;;;;;;;12.69;84.88;95467.94;5110960;28;20196;-44
2023/10/07 02:35:55;;;;;;;5.90;4.50;;;;;;;12.57;85.06;95455.38;5110759;28;20205;-45
2023/10/07 02:38:28;;;;;;;6.93;4.27;;;;;;;12.67;84.83;95482.69;5110884;28;20181;-44
2023/10/07 02:40:59;;;;;;;10.23;5.10;;;;;;;12.66;84.85;95482.81;5110626;28;20193;-43
2023/10/07 02:43:27;;;;;;;6.80;4.37;;;;;;;12.65;84.96;95482.03;5110748;28;20661;-45
2023/10/07 02:45:59;;;;;;;6.50;4.13;;;;;;;12.44;85.28;95459.00;5110662;28;20203;-44
2023/10/07 02:48:27;;;;;;;6.67;4.40;;;;;;;12.53;85.34;95477.94;5110688;28;20216;-43
2023/10/07 02:50:54;;;;;;;7.83;4.67;;;;;;;12.50;85.45;95473.84;5110384;28;20235;-46
2023/10/07 02:53:21;;;;;;;5.60;4.30;;;;;;;12.52;85.44;95481.41;5110669;28;20205;-45
2023/10/07 02:55:56;;;;;;;12.23;4.80;;;;;;;12.46;85.82;95481.94;5110451;28;20196;-43
2023/10/07 02:58:35;;;;;;;10.83;4.97;;;;;;;12.40;85.91;95485.03;5110477;28;20686;-47
2023/10/07 03:01:13;;;;;;;4.67;4.27;;;;;;;12.34;86.20;95477.84;5110243;28;20641;-45
2023/10/07 03:03:41;;;;;;;6.20;4.83;;;;;;;12.29;86.50;95475.66;5110600;28;20193;-45
2023/10/07 03:06:08;;;;;;;7.90;4.40;;;;;;;12.38;86.24;95480.00;5109403;28;20189;-45
2023/10/07 03:08:47;;;;;;;8.07;4.33;;;;;;;12.35;86.09;95482.03;5110645;28;20220;-44
2023/10/07 03:11:21;;;;;;;8.60;5.30;;;;;;;12.34;85.73;95488.09;5110371;28;20193;-45
2023/10/07 03:13:49;;;;;;;8.67;4.83;;;;;;;12.35;85.87;95492.28;5110481;28;20219;-43
2023/10/07 03:16:28;;;;;;;12.93;4.60;;;;;;;12.26;85.79;95484.44;5110290;28;20236;-43
2023/10/07 03:19:20;;;;;;;6.67;4.23;;;;;;;12.27;86.05;95491.19;5110693;28;20185;-45
2023/10/07 03:22:06;;;;;;;6.83;4.90;;;;;;;12.23;86.11;95496.69;5110637;28;20284;-43
2023/10/07 03:24:42;;;;;;;9.50;5.50;;;;;;;12.20;86.40;95491.81;5110299;28;20625;-44
2023/10/07 03:27:21;;;;;;;7.57;5.23;;;;;;;12.17;86.45;95499.75;5110241;28;20193;-43
2023/10/07 03:29:59;;;;;;;7.23;5.30;;;;;;;12.14;86.99;95493.16;5110588;28;20189;-44
2023/10/07 03:32:32;;;;;;;13.80;4.40;;;;;;;11.60;86.57;95419.03;5109957;28;20662;-44
2023/10/07 03:35:00;;;;;;;9.50;5.33;;;;;;;12.02;86.79;95492.41;5109985;28;20200;-44
2023/10/07 03:37:28;;;;;;;7.43;5.20;;;;;;;11.98;86.86;95485.09;5109962;28;20185;-44
2023/10/07 03:40:18;;;;;;;7.27;5.17;;;;;;;11.95;86.82;95493.84;5110193;28;20189;-44
2023/10/07 03:42:46;;;;;;;9.63;5.33;;;;;;;11.94;87.08;95494.78;5109556;28;20197;-44
2023/10/07 03:45:14;;;;;;;11.10;5.50;;;;;;;11.94;87.23;95487.09;5109872;28;20189;-45
2023/10/07 03:47:46;;;;;;;14.77;5.53;;;;;;;11.89;87.50;95488.41;5109589;28;20306;-43
2023/10/07 03:50:29;;;;;;;9.13;5.07;;;;;;;11.85;87.78;95492.97;5109541;28;20254;-44
2023/10/07 03:52:58;;;;;;;9.40;5.27;;;;;;;11.81;87.57;95487.25;5109680;28;20185;-45
2023/10/07 03:55:27;;;;;;;10.60;5.37;;;;;;;11.76;87.76;95480.91;5109940;28;20204;-44
2023/10/07 03:57:56;;;;;;;6.37;5.10;;;;;;;11.77;87.83;95491.00;5109498;28;20595;-45
2023/10/07 04:00:28;;;;;;;6.47;4.77;;;;;;;11.71;87.65;95494.09;5109708;28;20215;-45
2023/10/07 04:03:01;;;;;;;11.33;5.30;;;;;;;11.64;87.80;95485.25;5109554;28;20669;-44
2023/10/07 04:05:32;;;;;;;5.93;4.83;;;;;;;11.75;88.36;95502.34;5109784;28;20227;-45
2023/10/07 04:08:01;;;;;;;8.77;5.70;;;;;;;11.74;88.20;95503.25;5109543;28;20216;-45
2023/10/07 04:10:36;;;;;;;11.10;5.50;;;;;;;11.71;88.18;95509.47;5109911;28;20192;-45
2023/10/07 04:13:07;;;;;;;10.30;6.47;;;;;;;11.67;88.30;95502.16;5109723;28;20556;-44
2023/10/07 04:15:44;;;;;;;9.30;5.87;;;;;;;11.67;88.45;95513.19;5109825;28;20181;-44
2023/10/07 04:18:11;;;;;;;9.73;5.83;;;;;;;11.67;88.19;95510.63;5112753;28;20185;-44
2023/10/07 04:20:58;;;;;;;11.17;6.23;;;;;;;11.66;88.29;95516.72;5113982;28;20290;-44
2023/10/07 04:23:27;;;;;;;9.40;6.17;;;;;;;11.64;88.39;95510.88;5113457;28;20568;-46
2023/10/07 04:26:04;;;;;;;11.00;6.63;;;;;;;11.63;88.71;95506.69;5113581;28;20188;-47
2023/10/07 04:28:33;;;;;;;8.00;5.77;;;;;;;11.59;88.64;95497.63;5113785;28;20221;-45
2023/10/07 04:31:03;;;;;;;9.33;6.67;;;;;;;11.49;88.31;95484.75;5116870;28;20200;-45
2023/10/07 04:33:39;;;;;;;11.07;6.50;;;;;;;11.54;88.35;95494.63;5114179;28;20196;-44
2023/10/07 04:36:12;;;;;;;17.83;7.53;;;;;;;11.53;88.35;95488.69;5113223;28;20683;-44
2023/10/07 04:38:53;;;;;;;11.70;6.97;;;;;;;11.52;88.05;95491.38;5113495;28;20192;-44
2023/10/07 04:41:30;;;;;;;10.87;6.37;;;;;;;11.48;88.24;95490.81;5112920;28;20280;-45
2023/10/07 04:44:20;;;;;;;10.27;5.67;;;;;;;11.50;88.30;95501.75;5113188;28;20272;-45
2023/10/07 04:46:56;;;;;;;8.73;5.23;;;;;;;11.38;88.59;95478.88;5113340;28;20197;-44
2023/10/07 04:49:35;;;;;;;9.50;6.23;;;;;;;11.41;88.91;95494.00;5112540;28;20324;-45
2023/10/07 04:52:04;;;;;;;8.87;5.67;;;;;;;11.38;89.19;95489.13;5112836;28;20181;-45
2023/10/07 04:54:35;;;;;;;7.30;5.40;;;;;;;11.44;89.03;95496.28;5113025;28;20188;-46
2023/10/07 04:57:09;;;;;;;10.23;5.97;;;;;;;11.44;88.85;95503.97;5113962;28;20197;-46
2023/10/07 04:59:45;;;;;;;11.43;5.40;;;;;;;11.47;88.72;95499.44;5112734;28;20199;-43
2023/10/07 05:02:15;;;;;;;11.13;5.97;;;;;;;11.48;89.16;95502.81;5112932;28;20246;-46
2023/10/07 05:04:48;;;;;;;9.03;5.57;;;;;;;11.50;89.35;95506.06;5112452;28;20189;-45
2023/10/07 05:07:23;;;;;;;10.57;6.07;;;;;;;11.54;89.71;95504.88;5112695;28;20706;-44
2023/10/07 05:09:50;;;;;;;9.07;6.17;;;;;;;11.62;88.92;95511.97;5112273;28;20275;-43
2023/10/07 05:12:18;;;;;;;8.93;5.50;;;;;;;11.53;88.50;95480.22;5112429;28;20581;-44
2023/10/07 05:14:47;;;;;;;9.90;6.50;;;;;;;11.77;88.52;95519.19;5112299;28;20645;-46
2023/10/07 05:17:13;;;;;;;8.23;5.67;;;;;;;11.85;87.95;95499.88;5113055;28;20201;-46
2023/10/07 05:19:39;;;;;;;8.33;5.97;;;;;;;12.16;87.26;95523.78;5112432;28;20589;-46
2023/10/07 05:22:14;;;;;;;6.40;5.53;;;;;;;12.36;86.19;95527.28;5112786;28;20189;-47
2023/10/07 05:24:41;;;;;;;7.50;5.20;;;;;;;12.55;85.32;95525.59;5112465;28;20561;-43
2023/10/07 05:27:08;;;;;;;17.20;6.10;;;;;;;12.68;84.29;95525.38;5113438;28;20195;-46
2023/10/07 05:29:35;;;;;;;11.67;6.00;;;;;;;12.85;84.01;95531.63;5112583;28;20892;-46
2023/10/07 05:32:06;;;;;;;13.37;6.37;;;;;;;12.92;83.19;95509.63;5113480;28;20189;-44
2023/10/07 05:34:33;;;;;;;12.33;6.27;;;;;;;13.09;82.30;95509.94;5113449;28;20268;-45
2023/10/07 05:37:03;;;;;;;10.17;6.20;;;;;;;13.27;81.33;95500.66;5113254;28;20185;-45
2023/10/07 05:39:32;;;;;;;10.50;6.10;;;;;;;13.67;80.35;95528.78;5112434;28;20197;-44
2023/10/07 05:41:59;;;;;;;11.43;5.93;;;;;;;14.00;78.97;95534.47;5112375;28;20254;-45
2023/10/07 05:44:26;;;;;;;10.43;6.00;;;;;;;14.21;78.13;95537.66;5112029;28;20208;-44
2023/10/07 05:46:53;;;;;;;8.07;6.13;;;;;;;14.36;76.68;95527.72;5111503;28;20238;-44
2023/10/07 05:49:22;;;;;;;9.37;5.90;;;;;;;14.69;75.52;95551.38;5111734;28;20237;-46
2023/10/07 05:51:49;;;;;;;9.33;5.63;;;;;;;14.80;74.48;95549.41;5111638;28;20276;-45
2023/10/07 05:54:18;;;;;;;16.40;6.17;;;;;;;14.92;74.22;95544.88;5111985;28;20201;-45
2023/10/07 05:56:47;;;;;;;16.93;6.03;;;;;;;15.11;73.63;95548.31;5111987;28;20259;-46
2023/10/07 05:59:14;;;;;;;14.23;5.63;;;;;;;15.21;73.12;95544.72;5112049;28;20634;-43
2023/10/07 06:01:41;;;;;;;11.40;6.47;;;;;;;15.43;72.05;95553.81;5111771;28;20669;-46
2023/10/07 06:04:08;;;;;;;18.83;6.97;;;;;;;15.68;71.94;95559.25;5112020;28;20191;-46
2023/10/07 06:06:37;;;;;;;8.97;6.13;;;;;;;15.91;70.27;95562.97;5111503;28;20224;-47
2023/10/07 06:09:04;;;;;;;16.17;6.53;;;;;;;15.92;70.05;95561.19;5111772;28;20220;-47
2023/10/07 06:11:31;;;;;;;9.30;6.30;;;;;;;16.02;69.29;95556.78;5111634;28;20280;-47
2023/10/07 06:13:59;;;;;;;13.33;6.50;;;;;;;16.09;68.84;95551.81;5111606;28;20191;-45
2023/10/07 06:16:26;;;;;;;12.67;6.77;;;;;;;16.22;68.56;95549.66;5111359;28;20281;-45
2023/10/07 06:18:53;;;;;;;9.37;6.00;;;;;;;16.42;67.98;95547.69;5111026;28;20200;-45
2023/10/07 06:21:27;;;;;;;14.57;7.27;;;;;;;16.55;67.44;95548.88;5111358;28;20200;-45
2023/10/07 06:23:58;;;;;;;15.60;6.50;;;;;;;16.75;66.42;95551.25;5111537;28;20189;-44
2023/10/07 06:26:25;;;;;;;12.20;6.53;;;;;;;16.85;65.92;95556.34;5111233;28;20565;-43
2023/10/07 06:28:52;;;;;;;11.60;6.20;;;;;;;16.99;65.28;95555.75;5110945;28;20232;-45
2023/10/07 06:31:28;;;;;;;6.93;5.83;;;;;;;17.00;65.18;95552.19;5111198;28;20200;-44
2023/10/07 06:34:00;;;;;;;9.80;6.40;;;;;;;17.18;64.30;95552.88;5111473;28;20185;-45
2023/10/07 06:36:30;;;;;;;7.50;5.53;;;;;;;17.27;63.91;95553.72;5110952;28;20702;-45
2023/10/07 06:39:01;;;;;;;9.70;5.73;;;;;;;17.33;63.88;95557.47;5111345;28;20213;-44
2023/10/07 06:41:29;;;;;;;6.33;5.43;;;;;;;17.38;63.84;95556.00;5110694;28;20188;-44
2023/10/07 06:44:02;;;;;;;9.97;5.73;;;;;;;17.34;63.13;95551.31;5122038;28;20185;-46
2023/10/07 06:46:40;;;;;;;9.10;5.80;;;;;;;17.48;63.37;95556.66;5121019;28;20196;-46
2023/10/07 06:49:10;;;;;;;12.03;5.90;;;;;;;17.95;62.51;95565.66;5111081;28;20655;-46
2023/10/07 06:51:37;;;;;;;9.80;5.33;;;;;;;18.40;61.16;95565.16;5110799;28;20250;-45
2023/10/07 06:54:07;;;;;;;7.73;5.40;;;;;;;18.72;59.37;95553.94;5111278;28;20193;-44
2023/10/07 06:56:34;;;;;;;12.87;5.20;;;;;;;18.93;58.88;95560.34;5110554;28;20189;-46
2023/10/07 06:59:01;;;;;;;8.17;5.67;;;;;;;19.23;58.07;95562.16;5110685;28;20197;-47
2023/10/07 07:01:49;;;;;;;10.07;5.37;;;;;;;19.40;56.93;95556.88;5110660;28;20196;-46
2023/10/07 07:04:19;;;;;;;9.90;5.70;;;;;;;19.62;56.83;95553.53;5110958;28;20209;-46
2023/10/07 07:06:57;;;;;;;9.60;5.90;;;;;;;19.82;55.37;95553.91;5114443;28;20289;-44
2023/10/07 07:12:16;;;;;;;7.70;5.90;;;;;;;19.76;55.41;95546.78;5109298;28;20199;-45
2023/10/07 07:14:50;;;;;;;10.43;6.30;;;;;;;19.76;55.19;95547.59;5110153;28;20812;-46
2023/10/07 07:17:29;;;;;;;9.80;5.13;;;;;;;19.74;55.54;95540.97;5110306;28;20184;-46
2023/10/07 07:22:42;;;;;;;11.07;6.37;;;;;;;19.78;55.09;95542.25;5110122;28;20196;-45
2023/10/07 07:25:11;;;;;;;11.73;6.77;;;;;;;19.80;55.39;95543.66;5110350;28;20180;-48
2023/10/07 07:27:44;;;;;;;15.93;6.27;;;;;;;19.79;55.41;95542.06;5110489;28;20185;-46
2023/10/07 07:30:19;;;;;;;12.60;6.73;;;;;;;19.88;55.27;95552.38;5110409;27;20292;-44
2023/10/07 07:32:47;;;;;;;12.03;6.27;;;;;;;20.03;55.03;95561.00;5110210;28;20188;-47
2023/10/07 07:35:22;;;;;;;11.40;6.82;;;;;;;20.16;54.70;95550.84;5112590;28;20189;-46
2023/10/07 07:37:49;;;;;;;10.33;6.43;;;;;;;20.50;53.59;95550.38;5111420;28;20215;-46
2023/10/07 07:40:35;;;;;;;13.30;7.07;;;;;;;20.77;52.91;95554.19;5111830;28;20192;-44
2023/10/07 07:43:07;;;;;;;18.88;6.68;;;;;;;20.79;52.48;95544.41;5110555;28;20691;-45
2023/10/07 07:45:35;;;;;;;11.90;6.28;;;;;;;20.79;52.39;95544.41;5109778;28;20189;-46
2023/10/07 07:48:06;;;;;;;14.65;7.50;;;;;;;20.72;52.61;95545.28;5109768;28;20649;-45
2023/10/07 07:50:35;;;;;;;15.35;7.10;;;;;;;20.68;52.62;95523.25;5109395;28;20278;-46
2023/10/07 07:53:06;;;;;;;10.40;7.47;;;;;;;20.85;52.29;95535.06;5109884;28;20214;-45
2023/10/07 07:55:37;;;;;;;12.48;7.25;;;;;;;20.67;52.71;95537.22;5109885;28;20280;-44
2023/10/07 07:58:09;;;;;;;12.70;7.07;;;;;;;20.59;52.98;95526.91;5108485;28;20193;-45
2023/10/07 08:00:40;;;;;;;13.63;7.38;;;;;;;20.62;53.21;95531.75;5109746;28;20193;-44
2023/10/07 08:03:07;;;;;;;22.38;10.13;;;;;;;20.71;52.92;95520.28;5109889;28;20588;-46
2023/10/07 08:05:36;;;;;;;12.18;8.30;;;;;;;20.83;52.78;95529.25;5109317;28;20188;-46
2023/10/07 08:08:18;;;;;;;18.08;7.30;;;;;;;20.95;52.30;95527.00;5110368;28;20197;-46
2023/10/07 08:10:47;;;;;;;9.77;6.50;;;;;;;20.93;52.22;95534.16;5109656;28;20273;-45
2023/10/07 08:13:17;;;;;;;9.77;6.57;;;;;;;20.78;52.77;95534.19;5109783;28;20189;-46
2023/10/07 08:15:48;;;;;;;15.95;7.53;;;;;;;20.75;53.00;95535.34;5109790;28;20269;-46
2023/10/07 08:18:15;;;;;;;11.80;6.25;;;;;;;20.66;53.31;95513.03;5109815;28;20622;-46
2023/10/07 08:20:44;;;;;;;10.20;6.85;;;;;;;20.89;52.69;95538.13;5109513;28;20288;-46
2023/10/07 08:23:22;;;;;;;9.07;7.15;;;;;;;20.92;52.87;95538.56;5109989;28;20230;-46
2023/10/07 08:25:57;;;;;;;9.93;7.10;;;;;;;21.03;52.09;95530.31;5109606;28;20181;-45
2023/10/07 08:28:39;;;;;;;13.25;6.88;;;;;;;21.30;51.88;95523.63;5109764;28;20195;-45
2023/10/07 08:31:13;;;;;;;15.65;7.60;;;;;;;21.30;51.16;95512.41;5109866;28;20193;-46
2023/10/07 08:33:40;;;;;;;15.18;7.22;;;;;;;21.21;51.60;95519.50;5109356;28;20220;-45
2023/10/07 08:36:09;;;;;;;14.70;8.20;;;;;;;21.20;51.50;95511.88;5109523;28;20562;-46
2023/10/07 08:38:43;;;;;;;14.20;9.15;;;;;;;21.10;52.04;95512.16;5108976;28;20673;-46
2023/10/07 08:41:16;;;;;;;20.35;8.70;;;;;;;21.11;51.90;95515.56;5109632;28;20197;-46
2023/10/07 08:43:45;;;;;;;10.82;7.68;;;;;;;20.92;51.97;95502.16;5109040;28;20200;-47
2023/10/07 08:46:15;;;;;;;13.50;7.50;;;;;;;20.69;52.63;95504.09;5109643;28;20189;-47
2023/10/07 08:48:49;;;;;;;10.18;7.80;;;;;;;20.57;52.97;95503.72;5108948;28;20185;-46
2023/10/07 08:51:21;;;;;;;11.75;7.68;;;;;;;20.65;53.07;95503.63;5109041;28;20225;-46
2023/10/07 08:53:49;;;;;;;10.80;7.00;;;;;;;20.68;52.72;95495.47;5109802;28;20200;-46
2023/10/07 08:56:25;;;;;;;10.20;6.65;;;;;;;20.70;52.51;95496.09;5109693;28;20268;-47
2023/10/07 08:58:52;;;;;;;13.88;7.20;;;;;;;20.73;52.11;95490.53;5108902;28;20216;-46
2023/10/07 09:01:19;;;;;;;13.05;7.65;;;;;;;20.90;52.08;95485.94;5109134;28;20196;-46
2023/10/07 09:04:00;;;;;;;8.90;6.15;;;;;;;21.00;51.34;95486.44;5110051;28;20185;-46
2023/10/07 09:06:32;;;;;;;13.43;7.57;;;;;;;20.96;51.76;95472.19;5112555;28;20235;-46
2023/10/07 09:09:06;;;;;;;9.40;6.78;;;;;;;21.13;51.28;95479.78;5112353;28;20700;-45
2023/10/07 09:11:37;;;;;;;12.48;6.88;;;;;;;21.19;51.16;95474.66;5112661;28;20226;-45
2023/10/07 09:14:08;;;;;;;14.52;7.38;;;;;;;21.16;50.90;95475.03;5112382;28;20197;-44
2023/10/07 09:16:35;;;;;;;8.65;6.40;;;;;;;21.17;50.94;95481.84;5112761;28;20185;-45
2023/10/07 09:19:10;;;;;;;14.50;7.60;;;;;;;21.20;50.55;95476.28;5112648;28;20193;-45
2023/10/07 09:21:38;;;;;;;10.88;7.68;;;;;;;21.13;49.92;95469.38;5113090;28;20177;-45
2023/10/07 09:24:13;;;;;;;10.70;6.47;;;;;;;21.04;50.14;95476.50;5112492;28;20189;-46
2023/10/07 09:26:56;;;;;;;9.63;6.25;;;;;;;20.98;49.88;95479.81;5112295;28;20630;-47
2023/10/07 09:29:25;;;;;;;7.35;6.43;;;;;;;20.96;50.60;95476.59;5112121;28;20252;-44
2023/10/07 09:31:56;;;;;;;12.63;7.15;;;;;;;20.95;50.94;95473.19;5112547;28;20250;-45
2023/10/07 09:34:32;;;;;;;8.80;6.82;;;;;;;21.00;50.70;95476.06;5112467;28;20263;-46
2023/10/07 09:37:08;;;;;;;10.43;6.47;;;;;;;20.96;50.29;95458.41;5112257;28;20629;-46
2023/10/07 09:39:43;;;;;;;9.10;6.07;;;;;;;21.05;50.75;95465.91;5112725;28;20241;-46
2023/10/07 09:45:28;;;;;;;14.57;5.80;;;;;;;21.25;49.08;95465.31;5109253;27;20665;-46
2023/10/07 09:48:00;;;;;;;11.93;5.90;;;;;;;21.25;49.70;95465.31;5108152;28;20189;-45
2023/10/07 09:50:33;;;;;;;7.82;5.55;;;;;;;21.25;50.06;95449.72;5107635;28;20264;-45
2023/10/07 09:53:27;;;;;;;8.73;5.78;;;;;;;21.47;49.66;95458.34;5107148;28;20182;-45
2023/10/07 09:56:11;;;;;;;12.45;6.40;;;;;;;21.38;49.30;95452.47;5106810;28;20275;-44
2023/10/07 09:58:52;;;;;;;8.60;5.68;;;;;;;21.35;49.33;95454.63;5107758;28;20228;-44
2023/10/07 10:01:35;;;;;;;11.00;6.07;;;;;;;21.09;49.06;95409.13;5106920;28;20189;-45
2023/10/07 10:04:29;;;;;;;9.13;5.03;;;;;;;21.17;49.36;95439.41;5106755;28;20231;-44
2023/10/07 10:07:11;;;;;;;9.52;6.05;;;;;;;21.16;50.17;95440.41;5106744;28;20192;-46
2023/10/07 10:10:00;;;;;;;9.10;5.50;;;;;;;21.11;49.92;95435.75;5106733;28;20212;-46
2023/10/07 10:12:48;;;;;;;10.07;5.78;;;;;;;21.12;49.45;95423.56;5106728;28;20271;-44
2023/10/07 10:18:06;;;;;;;10.02;6.03;;;;;;;21.25;49.74;95401.09;5106360;28;20273;-46
2023/10/07 10:20:42;;;;;;;9.98;5.75;;;;;;;21.49;49.92;95418.13;5106645;28;20192;-45
2023/10/07 10:23:18;;;;;;;9.85;5.40;;;;;;;21.15;49.82;95338.13;5106860;28;20276;-45
2023/10/07 10:25:48;;;;;;;8.57;5.82;;;;;;;21.71;48.95;95398.06;5106320;28;20184;-45
2023/10/07 10:28:21;;;;;;;9.70;6.13;;;;;;;21.73;48.81;95390.88;5106527;28;20185;-45
2023/10/07 10:30:50;;;;;;;11.15;5.82;;;;;;;21.75;48.81;95386.28;5106497;28;20215;-45
2023/10/07 10:33:23;;;;;;;13.73;5.25;;;;;;;21.78;48.93;95383.31;5106841;28;20196;-46
2023/10/07 10:35:52;;;;;;;11.82;5.40;;;;;;;21.65;49.02;95382.41;5106137;28;20660;-46
2023/10/07 10:38:19;;;;;;;10.45;5.25;;;;;;;21.64;49.18;95370.41;5106650;28;20186;-48
2023/10/07 10:40:46;;;;;;;9.25;4.90;;;;;;;21.58;49.24;95342.50;5106417;28;20185;-47
2023/10/07 10:43:25;;;;;;;8.38;4.70;;;;;;;21.84;49.02;95365.31;5105611;28;20278;-44
2023/10/07 10:46:02;;;;;;;10.10;4.53;;;;;;;21.94;48.67;95357.97;5105870;28;20310;-46
2023/10/07 10:48:34;;;;;;;8.57;5.50;;;;;;;21.89;48.81;95349.91;5106342;28;20189;-44
2023/10/07 10:51:06;;;;;;;9.95;5.60;;;;;;;21.81;48.15;95327.44;5106365;28;20201;-45
2023/10/07 10:53:40;;;;;;;8.23;5.78;;;;;;;21.89;48.94;95335.13;5106626;28;20208;-45
2023/10/07 10:56:10;;;;;;;13.60;5.45;;;;;;;21.90;49.30;95333.31;5095135;28;20204;-45
2023/10/07 10:58:37;;;;;;;8.93;5.20;;;;;;;21.97;49.18;95327.13;5092284;28;20234;-46
2023/10/07 11:01:12;;;;;;;10.27;5.03;;;;;;;22.04;48.82;95321.94;5092921;28;20272;-46
2023/10/07 11:03:42;;;;;;;11.90;5.35;;;;;;;22.16;48.49;95317.84;5092686;28;20231;-46
2023/10/07 11:06:09;;;;;;;6.40;4.57;;;;;;;22.18;48.50;95308.00;5092112;28;20211;-46
2023/10/07 11:08:36;;;;;;;13.90;5.38;;;;;;;22.23;48.35;95304.81;5092133;28;20239;-44
2023/10/07 11:11:10;;;;;;;5.30;4.13;;;;;;;22.32;48.11;95306.25;5092943;28;20189;-45
2023/10/07 11:13:39;;;;;;;12.63;5.03;;;;;;;22.31;47.61;95298.63;5094343;28;20198;-47
2023/10/07 11:16:10;;;;;;;9.80;4.57;;;;;;;22.28;47.63;95295.44;5103216;28;20205;-46
2023/10/07 11:18:38;;;;;;;7.55;4.55;;;;;;;22.28;48.05;95297.25;5100125;28;20251;-45
2023/10/07 11:21:11;;;;;;;9.60;5.18;;;;;;;22.37;48.22;95290.84;5093979;28;20189;-45
2023/10/07 11:23:45;;;;;;;9.73;4.72;;;;;;;22.46;47.94;95278.44;5092254;28;20254;-46
2023/10/07 11:26:13;;;;;;;6.57;4.38;;;;;;;22.50;48.07;95277.84;5091682;28;20598;-44
2023/10/07 11:28:41;;;;;;;12.57;4.78;;;;;;;22.53;47.54;95274.03;5092080;28;20209;-45
2023/10/07 11:31:08;;;;;;;10.95;4.47;;;;;;;22.62;47.45;95274.66;5091961;28;20194;-45
2023/10/07 11:33:35;;;;;;;7.63;4.60;;;;;;;22.65;46.90;95263.84;5092190;28;20208;-46
2023/10/07 11:36:03;;;;;;;6.85;4.15;;;;;;;22.70;46.66;95275.25;5091785;28;20246;-46
2023/10/07 11:38:31;;;;;;;10.07;4.45;;;;;;;22.75;46.53;95269.44;5092388;28;20186;-46
2023/10/07 11:40:59;;;;;;;6.85;4.63;;;;;;;22.73;46.40;95254.00;5092300;28;20706;-46
2023/10/07 11:43:27;;;;;;;8.95;4.78;;;;;;;22.85;46.23;95258.66;5091919;28;20308;-45
2023/10/07 11:45:54;;;;;;;8.85;4.53;;;;;;;22.83;45.87;95250.22;5092775;28;20189;-46
2023/10/07 11:48:21;;;;;;;9.68;4.68;;;;;;;22.81;46.27;95242.59;5093601;28;20572;-46
2023/10/07 11:50:48;;;;;;;4.60;3.92;;;;;;;22.85;46.13;95241.19;5094117;28;20193;-46
2023/10/07 11:53:15;;;;;;;6.75;4.40;;;;;;;22.94;45.59;95241.81;5092549;28;20206;-45
2023/10/07 11:55:43;;;;;;;10.68;4.95;;;;;;;22.99;45.70;95240.22;5091435;28;20185;-44
2023/10/07 11:58:15;;;;;;;6.20;4.28;;;;;;;23.01;45.41;95237.38;5090797;28;20232;-45
2023/10/07 12:00:42;;;;;;;9.82;4.95;;;;;;;23.10;44.97;95245.81;5091266;28;20271;-45
2023/10/07 12:03:10;;;;;;;7.57;3.65;;;;;;;23.21;42.78;95234.78;5090659;28;20603;-45